SBSM/RIA METAR and TAF weather

Enter ICAO airport designator
Station Type Date Time Source
SBSM METAR 2019/09/20 20:00 UTC NOAA

SBSM 202000Z 16008KT 140V200 CAVOK 18/08 Q1018


Station Type Date Time Source
SBSM Decoded METAR 2019/09/20 20:00 UTC NOAA

Santa Maria Aero-Porto , Brazil (SBSM) 29-43S 053-42W
Sep 20, 2019 - 04:00 PM EDT / 2019.09.20 2000 UTC
Wind: from the SSE (160 degrees) at 9 MPH (8 KT) (direction variable):0
Visibility: greater than 7 mile(s):0
Temperature: 64 F (18 C)
Dew Point: 46 F (8 C)
Relative Humidity: 51%
Pressure (altimeter): 30.06 in. Hg (1018 hPa)
ob: SBSM 202000Z 16008KT 140V200 CAVOK 18/08 Q1018
cycle: 20

Station Type Date Time Source
SBSM TAF 2019/09/20 18:33 UTC NOAA

TAF SBSM 201530Z 2018/2106 12010KT CAVOK TX19/2018Z TN12/2105Z
RMK PEB

Example: see airport list